Time;durP1;ratioP1;P1;durP2;ratioP2;P2;SDS_P1;SDS_P2;PMS_P1;PMS_P2;Temp;Humidity;BMP_temperature;BMP_pressure;BME280_temperature;BME280_humidity;BME280_pressure;Samples;Min_cycle;Max_cycle;Signal;HPM_P1;HPM_P2
2022/01/08 00:00:55;;;;;;;;;;;;;;;19.07;68.10;101455.91;5053489;28;1595;-35
2022/01/08 00:03:21;;;;;;;;;;;;;;;19.01;68.27;101451.03;5044462;28;1898;-35
2022/01/08 00:05:53;;;;;;;;;;;;;;;18.95;67.92;101448.84;5054534;28;1773;-35
2022/01/08 00:11:01;;;;;;;;;;;;;;;18.90;67.90;101445.69;5052432;28;1679;-35
2022/01/08 00:13:49;;;;;;;;;;;;;;;18.80;68.58;101437.47;5041767;28;1639;-35
2022/01/08 00:16:16;;;;;;;;;;;;;;;18.81;67.88;101438.34;5046071;28;1696;-36
2022/01/08 00:18:43;;;;;;;;;;;;;;;18.76;67.92;101427.94;5048028;28;1103;-35
2022/01/08 00:21:15;;;;;;;;;;;;;;;18.75;68.77;101430.75;5041052;28;2041;-35
2022/01/08 00:23:43;;;;;;;;;;;;;;;18.69;68.61;101424.88;5052738;28;2103;-35
2022/01/08 00:26:12;;;;;;;;;;;;;;;18.68;68.33;101433.88;5052123;28;1589;-35
2022/01/08 00:28:41;;;;;;;;;;;;;;;18.63;68.28;101425.34;5052546;28;1972;-35
2022/01/08 00:31:10;;;;;;;;;;;;;;;18.62;68.22;101415.59;5048581;28;1712;-35
2022/01/08 00:33:36;;;;;;;;;;;;;;;18.62;68.57;101420.97;5050405;28;1347;-35
2022/01/08 00:36:03;;;;;;;;;;;;;;;18.60;68.89;101414.88;5051497;28;2603;-35
2022/01/08 00:38:36;;;;;;;;;;;;;;;18.59;68.84;101425.69;5042322;28;1801;-35
2022/01/08 00:41:03;;;;;;;;;;;;;;;18.56;69.21;101412.53;5052652;28;1687;-35
2022/01/08 00:43:32;;;;;;;;;;;;;;;18.59;69.13;101429.22;5052694;28;1977;-35
2022/01/08 00:46:00;;;;;;;;;;;;;;;18.52;69.08;101411.91;5053190;28;1584;-35
2022/01/08 00:48:28;;;;;;;;;;;;;;;18.56;69.36;101412.53;5050728;28;1503;-35
2022/01/08 00:51:04;;;;;;;;;;;;;;;18.55;68.67;101410.81;5053289;28;1720;-35
2022/01/08 00:53:35;;;;;;;;;;;;;;;18.54;68.30;101401.06;5035755;28;1695;-35
2022/01/08 00:56:05;;;;;;;;;;;;;;;18.53;68.61;101402.91;5050143;28;1579;-35
2022/01/08 00:58:32;;;;;;;;;;;;;;;18.54;68.74;101409.09;5045270;28;1506;-35
2022/01/08 01:01:00;;;;;;;;;;;;;;;18.54;68.58;101399.25;5052404;28;1644;-36
2022/01/08 01:03:26;;;;;;;;;;;;;;;18.51;68.83;101404.00;5049550;28;1973;-35
2022/01/08 01:05:54;;;;;;;;;;;;;;;18.48;68.60;101395.22;5049795;28;1609;-35
2022/01/08 01:08:22;;;;;;;;;;;;;;;18.47;69.18;101398.00;5048933;28;1743;-35
2022/01/08 01:11:11;;;;;;;;;;;;;;;18.44;69.02;101388.41;5052309;28;1964;-35
2022/01/08 01:13:46;;;;;;;;;;;;;;;18.45;68.79;101399.97;5053055;28;1656;-35
2022/01/08 01:16:13;;;;;;;;;;;;;;;18.42;68.38;101386.78;5042652;28;1607;-35
2022/01/08 01:18:40;;;;;;;;;;;;;;;18.43;67.98;101396.53;5048292;28;1178;-35
2022/01/08 01:21:07;;;;;;;;;;;;;;;18.38;68.79;101386.19;5038956;28;1434;-36
2022/01/08 01:23:38;;;;;;;;;;;;;;;18.37;68.31;101380.94;5047683;28;1906;-36
2022/01/08 01:26:12;;;;;;;;;;;;;;;18.35;68.66;101375.69;5041724;28;1740;-35
2022/01/08 01:28:47;;;;;;;;;;;;;;;18.38;68.42;101383.50;5042007;28;1314;-35
2022/01/08 01:47:48;;;;;;;;;;;;;;;18.48;67.35;101356.84;5044154;28;2042;-35
2022/01/08 01:50:14;;;;;;;;;;;;;;;18.59;68.02;101351.53;5034519;28;1996;-35
2022/01/08 01:52:41;;;;;;;;;;;;;;;18.81;66.36;101352.59;5053614;28;1438;-35
2022/01/08 01:55:10;;;;;;;;;;;;;;;18.81;66.79;101341.88;5048510;28;1337;-35
2022/01/08 01:57:36;;;;;;;;;;;;;;;18.84;66.84;101342.50;5045625;28;2071;-35
2022/01/08 02:00:10;;;;;;;;;;;;;;;18.87;66.83;101342.22;5046585;28;1782;-35
2022/01/08 02:02:39;;;;;;;;;;;;;;;19.28;65.47;101340.78;5042990;28;2044;-36
2022/01/08 02:05:15;;;;;;;;;;;;;;;19.68;64.75;101339.38;5052222;28;1593;-36
2022/01/08 02:07:45;;;;;;;;;;;;;;;19.56;64.06;101318.91;5053065;28;1458;-35
2022/01/08 02:10:12;;;;;;;;;;;;;;;19.32;65.92;101322.63;5048427;28;2041;-35
2022/01/08 02:12:42;;;;;;;;;;;;;;;19.12;66.21;101323.34;5037909;28;1742;-35
2022/01/08 02:15:13;;;;;;;;;;;;;;;18.98;65.65;101314.59;5050884;28;1614;-35
2022/01/08 02:17:41;;;;;;;;;;;;;;;18.99;65.93;101313.59;5051584;28;1974;-35
2022/01/08 02:20:09;;;;;;;;;;;;;;;18.94;66.90;101312.25;5053188;28;1997;-35
2022/01/08 02:22:37;;;;;;;;;;;;;;;18.88;66.59;101316.31;5045427;28;1332;-35
2022/01/08 02:25:06;;;;;;;;;;;;;;;18.78;66.77;101308.09;5035863;28;1972;-35
2022/01/08 02:27:35;;;;;;;;;;;;;;;18.69;67.44;101309.66;5047569;28;1997;-35
2022/01/08 02:30:06;;;;;;;;;;;;;;;18.63;67.40;101312.81;5040361;28;2005;-35
2022/01/08 02:32:35;;;;;;;;;;;;;;;18.60;67.88;101310.41;5046395;28;1751;-35
2022/01/08 02:35:05;;;;;;;;;;;;;;;18.54;67.84;101308.16;5053186;28;1808;-38
2022/01/08 02:37:37;;;;;;;;;;;;;;;18.49;67.58;101305.03;5037101;28;1554;-35
2022/01/08 02:40:05;;;;;;;;;;;;;;;18.43;68.09;101286.75;5045974;28;2016;-35
2022/01/08 02:42:39;;;;;;;;;;;;;;;18.39;68.33;101304.03;5049035;28;1607;-35
2022/01/08 02:45:14;;;;;;;;;;;;;;;18.38;67.72;101307.66;5047265;28;1910;-35
2022/01/08 02:47:42;;;;;;;;;;;;;;;18.32;67.67;101294.75;5047543;28;1832;-35
2022/01/08 02:50:09;;;;;;;;;;;;;;;18.29;67.93;101304.72;5056032;28;1587;-35
2022/01/08 02:52:40;;;;;;;;;;;;;;;18.28;68.42;101305.72;5056601;28;1679;-35
2022/01/08 02:55:08;;;;;;;;;;;;;;;18.26;68.32;101306.78;5053957;28;1714;-35
2022/01/08 02:57:35;;;;;;;;;;;;;;;18.26;68.01;101293.38;5039978;28;1772;-35
2022/01/08 03:02:48;;;;;;;;;;;;;;;18.23;68.44;101289.13;5075816;23;1807;-35
2022/01/08 03:05:18;;;;;;;;;;;;;;;18.22;68.27;101295.47;5037308;28;1961;-35
2022/01/08 03:07:49;;;;;;;;;;;;;;;18.23;68.09;101296.31;5048732;28;1512;-35
2022/01/08 03:10:21;;;;;;;;;;;;;;;18.21;68.29;101298.25;5051716;28;1752;-35
2022/01/08 03:12:51;;;;;;;;;;;;;;;18.17;68.36;101292.28;5045168;28;1655;-35
2022/01/08 03:15:25;;;;;;;;;;;;;;;18.20;68.34;101292.03;5043376;28;1931;-35
2022/01/08 03:17:51;;;;;;;;;;;;;;;18.33;67.57;101283.94;5051677;28;1067;-35
2022/01/08 03:20:18;;;;;;;;;;;;;;;18.55;67.13;101272.41;5054017;28;1865;-35
2022/01/08 03:22:45;;;;;;;;;;;;;;;18.76;66.32;101277.91;5041482;28;1817;-35
2022/01/08 03:25:16;;;;;;;;;;;;;;;18.85;66.31;101273.66;5047415;28;2259;-35
2022/01/08 03:27:44;;;;;;;;;;;;;;;18.90;65.40;101270.59;5045602;28;1746;-35
2022/01/08 03:30:13;;;;;;;;;;;;;;;18.98;65.68;101273.53;5045754;28;1474;-35
2022/01/08 03:32:44;;;;;;;;;;;;;;;19.02;65.06;101289.25;5045055;28;1659;-35
2022/01/08 03:35:16;;;;;;;;;;;;;;;19.05;65.59;101274.75;5046359;28;1416;-35
2022/01/08 03:37:42;;;;;;;;;;;;;;;19.05;64.70;101264.88;5047358;28;1030;-35
2022/01/08 03:40:09;;;;;;;;;;;;;;;19.11;64.56;101257.31;5045895;28;1677;-34
2022/01/08 03:42:39;;;;;;;;;;;;;;;19.15;65.53;101266.81;5044932;28;1979;-34
2022/01/08 03:45:07;;;;;;;;;;;;;;;19.15;64.48;101261.44;5050998;28;1910;-35
2022/01/08 03:47:54;;;;;;;;;;;;;;;19.12;65.45;101265.25;5050555;28;1970;-35
2022/01/08 03:50:24;;;;;;;;;;;;;;;19.05;65.63;101251.47;5038297;28;1940;-35
2022/01/08 03:52:58;;;;;;;;;;;;;;;19.04;65.03;101254.28;5050286;28;1507;-35
2022/01/08 03:55:24;;;;;;;;;;;;;;;19.02;65.33;101262.44;5046695;28;1935;-37
2022/01/08 03:57:54;;;;;;;;;;;;;;;18.95;65.37;101257.69;5047621;28;1127;-35
2022/01/08 04:00:22;;;;;;;;;;;;;;;18.91;64.97;101278.53;5048248;28;1563;-35
2022/01/08 04:02:56;;;;;;;;;;;;;;;18.86;65.46;101270.00;5046566;28;1774;-34
2022/01/08 04:05:26;;;;;;;;;;;;;;;18.85;65.99;101265.63;5036644;28;1977;-35
2022/01/08 04:13:19;;;;;;;;;;;;;;;18.79;65.79;101252.69;5035645;28;1738;-35
2022/01/08 04:15:48;;;;;;;;;;;;;;;18.80;65.50;101246.38;5046112;28;1062;-35
2022/01/08 04:18:19;;;;;;;;;;;;;;;18.81;65.66;101251.59;5049963;28;1462;-35
2022/01/08 04:21:09;;;;;;;;;;;;;;;18.80;66.41;101243.69;5051190;28;1738;-34
2022/01/08 04:23:37;;;;;;;;;;;;;;;18.81;65.24;101256.13;5043082;28;1906;-35
2022/01/08 04:26:07;;;;;;;;;;;;;;;18.81;66.01;101256.13;5043739;28;1657;-35
2022/01/08 04:28:36;;;;;;;;;;;;;;;18.78;65.76;101248.28;5037310;28;2047;-35
2022/01/08 04:31:03;;;;;;;;;;;;;;;18.79;65.35;101255.38;5049154;28;1860;-35
2022/01/08 04:33:32;;;;;;;;;;;;;;;18.76;65.68;101259.16;5041444;28;1105;-35
2022/01/08 04:36:02;;;;;;;;;;;;;;;18.75;65.76;101257.44;5052706;28;1686;-35
2022/01/08 04:38:32;;;;;;;;;;;;;;;18.79;65.40;101247.31;5050482;28;1624;-35
2022/01/08 04:40:59;;;;;;;;;;;;;;;18.76;65.82;101253.78;5043232;28;1335;-35
2022/01/08 04:43:30;;;;;;;;;;;;;;;18.77;65.58;101243.91;5049370;28;1789;-35
2022/01/08 04:46:08;;;;;;;;;;;;;;;18.80;65.71;101241.00;5049353;28;1748;-35
2022/01/08 04:48:36;;;;;;;;;;;;;;;18.79;65.10;101247.31;5034895;28;2053;-35
2022/01/08 04:53:47;;;;;;;;;;;;;;;18.77;65.78;101235.88;5038223;28;2491;-35
2022/01/08 04:56:13;;;;;;;;;;;;;;;18.79;65.38;101247.31;5050613;28;1938;-35
2022/01/08 04:58:41;;;;;;;;;;;;;;;18.74;66.13;101252.19;5050325;28;1872;-35
2022/01/08 05:01:13;;;;;;;;;;;;;;;18.77;65.48;101250.13;5034848;28;1716;-35
2022/01/08 05:03:41;;;;;;;;;;;;;;;18.74;66.22;101244.16;5045661;28;1996;-35
2022/01/08 05:06:09;;;;;;;;;;;;;;;18.72;66.27;101251.47;5051969;28;1817;-35
2022/01/08 05:08:37;;;;;;;;;;;;;;;18.78;66.10;101248.28;5043066;28;1511;-35
2022/01/08 05:11:07;;;;;;;;;;;;;;;18.73;65.65;101245.13;5036059;28;1773;-35
2022/01/08 05:13:34;;;;;;;;;;;;;;;18.69;65.49;101247.19;5044318;28;1417;-35
2022/01/08 05:16:02;;;;;;;;;;;;;;;18.69;65.27;101239.16;5044202;28;1460;-35
2022/01/08 05:18:34;;;;;;;;;;;;;;;18.67;65.26;101239.28;5047758;28;2190;-35
2022/01/08 05:21:13;;;;;;;;;;;;;;;18.63;66.19;101237.81;5051608;28;1739;-35
2022/01/08 05:23:42;;;;;;;;;;;;;;;18.62;65.76;101230.78;5041261;28;1907;-35
2022/01/08 05:26:11;;;;;;;;;;;;;;;18.62;66.10;101235.25;5039326;28;1769;-35
2022/01/08 05:28:40;;;;;;;;;;;;;;;18.56;65.89;101231.25;5045485;28;1046;-35
2022/01/08 05:31:09;;;;;;;;;;;;;;;18.52;66.27;101229.78;5046197;28;1946;-35
2022/01/08 05:33:39;;;;;;;;;;;;;;;18.53;66.54;101223.47;5042693;28;1525;-35
2022/01/08 05:36:07;;;;;;;;;;;;;;;18.54;66.45;101224.31;5042328;28;1679;-35
2022/01/08 05:38:34;;;;;;;;;;;;;;;18.50;66.28;101229.03;5036923;28;1449;-35
2022/01/08 05:41:02;;;;;;;;;;;;;;;18.53;66.03;101226.13;5045920;28;1585;-35
2022/01/08 05:43:31;;;;;;;;;;;;;;;18.53;65.95;101226.13;5051738;28;1544;-35
2022/01/08 05:46:07;;;;;;;;;;;;;;;18.52;66.07;101218.22;5043421;28;1906;-35
2022/01/08 05:48:40;;;;;;;;;;;;;;;18.51;65.92;101219.19;5034117;28;1042;-35
2022/01/08 05:51:15;;;;;;;;;;;;;;;18.52;66.58;101212.84;5049805;28;1804;-35
2022/01/08 05:53:45;;;;;;;;;;;;;;;18.54;66.19;101227.81;5037994;28;1349;-35
2022/01/08 05:56:15;;;;;;;;;;;;;;;18.53;66.36;101223.47;5042338;28;1566;-35
2022/01/08 05:58:43;;;;;;;;;;;;;;;18.56;65.97;101225.91;5052151;28;1760;-35
2022/01/08 06:01:09;;;;;;;;;;;;;;;18.54;65.83;101217.13;5043441;28;1464;-35
2022/01/08 06:03:35;;;;;;;;;;;;;;;18.56;66.04;101220.56;5038323;28;994;-35
2022/01/08 06:06:05;;;;;;;;;;;;;;;18.61;65.68;101212.97;5050915;28;1906;-35
2022/01/08 06:08:36;;;;;;;;;;;;;;;18.64;65.95;101214.56;5042702;28;1290;-35
2022/01/08 06:11:03;;;;;;;;;;;;;;;18.68;65.89;101203.50;5049077;28;1632;-35
2022/01/08 06:13:30;;;;;;;;;;;;;;;18.87;65.76;101210.06;5044784;28;1865;-35
2022/01/08 06:16:05;;;;;;;;;;;;;;;18.99;66.61;101208.22;5053023;28;1659;-35
2022/01/08 06:18:41;;;;;;;;;;;;;;;19.01;65.77;101215.16;5033680;28;1019;-35
2022/01/08 06:21:12;;;;;;;;;;;;;;;19.03;65.65;101209.69;5039583;28;1652;-35
2022/01/08 06:23:44;;;;;;;;;;;;;;;19.03;66.11;101207.84;5038142;28;1767;-35
2022/01/08 06:26:13;;;;;;;;;;;;;;;19.10;66.18;101199.31;5039487;28;1902;-35
2022/01/08 06:28:42;;;;;;;;;;;;;;;19.14;64.74;101193.59;5043068;28;1878;-35
2022/01/08 06:31:08;;;;;;;;;;;;;;;19.14;66.15;101198.94;5043897;28;1782;-35
2022/01/08 06:33:35;;;;;;;;;;;;;;;19.11;65.30;101191.16;5046616;28;1015;-35
2022/01/08 06:36:02;;;;;;;;;;;;;;;19.07;65.68;101195.06;5036896;28;1999;-35
2022/01/08 06:38:32;;;;;;;;;;;;;;;18.86;66.85;101182.44;5044741;28;1768;-34
2022/01/08 06:41:06;;;;;;;;;;;;;;;18.73;66.90;101184.38;5045673;28;1894;-35
2022/01/08 06:43:36;;;;;;;;;;;;;;;18.87;66.88;101175.25;5050538;28;1575;-34
2022/01/08 06:46:02;;;;;;;;;;;;;;;18.97;66.00;101188.75;5047449;28;2028;-35
2022/01/08 06:48:31;;;;;;;;;;;;;;;18.96;66.53;101179.88;5046425;28;1213;-34
2022/01/08 06:51:00;;;;;;;;;;;;;;;18.90;66.44;101185.72;5042009;28;1532;-35
2022/01/08 06:53:28;;;;;;;;;;;;;;;18.96;67.10;101179.88;5047791;28;1612;-35
2022/01/08 06:55:57;;;;;;;;;;;;;;;18.94;66.56;101179.13;5043999;28;1573;-35
2022/01/08 06:58:27;;;;;;;;;;;;;;;18.91;66.86;101194.63;5049160;28;1441;-35
2022/01/08 07:00:53;;;;;;;;;;;;;;;18.90;66.69;101185.72;5048580;28;1692;-35
2022/01/08 07:03:21;;;;;;;;;;;;;;;18.82;66.82;101182.78;5047320;28;1427;-35
2022/01/08 07:05:56;;;;;;;;;;;;;;;18.86;66.13;101200.31;5047124;28;1979;-35
2022/01/08 07:08:23;;;;;;;;;;;;;;;18.83;67.10;101184.50;5047070;28;1450;-35
2022/01/08 07:10:52;;;;;;;;;;;;;;;18.88;67.15;101196.56;5049238;28;1477;-35
2022/01/08 07:13:18;;;;;;;;;;;;;;;18.95;67.04;101183.50;5048489;28;1527;-35
2022/01/08 07:15:47;;;;;;;;;;;;;;;18.98;66.82;101187.75;5046991;28;1438;-35
2022/01/08 07:18:17;;;;;;;;;;;;;;;19.04;67.02;101176.56;5050694;28;1766;-35
2022/01/08 07:20:46;;;;;;;;;;;;;;;19.05;67.65;101179.09;5046116;28;1534;-36
2022/01/08 07:23:12;;;;;;;;;;;;;;;19.07;66.88;101171.78;5046605;28;1378;-35
2022/01/08 07:25:46;;;;;;;;;;;;;;;19.01;66.76;101168.75;5045555;28;1975;-36
2022/01/08 07:28:15;;;;;;;;;;;;;;;19.00;68.01;101170.59;5049535;28;1253;-35
2022/01/08 07:30:41;;;;;;;;;;;;;;;19.05;67.03;101164.84;5047184;28;1578;-35
2022/01/08 07:33:10;;;;;;;;;;;;;;;19.03;68.27;101169.47;5046944;28;1597;-35
2022/01/08 07:35:39;;;;;;;;;;;;;;;19.04;68.37;101161.31;5043820;28;1673;-35
2022/01/08 07:38:05;;;;;;;;;;;;;;;19.02;68.12;101151.69;5049705;28;1519;-35
2022/01/08 07:40:34;;;;;;;;;;;;;;;19.18;68.61;101167.34;5049989;28;1266;-36
2022/01/08 07:43:05;;;;;;;;;;;;;;;19.23;67.80;101154.44;5049196;28;1296;-35
2022/01/08 07:45:31;;;;;;;;;;;;;;;19.34;67.12;101154.41;5046242;28;1902;-35
2022/01/08 07:48:00;;;;;;;;;;;;;;;19.38;68.13;101153.16;5052568;28;1956;-35
2022/01/08 07:50:38;;;;;;;;;;;;;;;19.34;67.92;101146.34;5043783;28;1507;-35
2022/01/08 07:53:12;;;;;;;;;;;;;;;19.40;67.90;101153.03;5051080;28;1430;-35
2022/01/08 07:55:38;;;;;;;;;;;;;;;19.38;67.30;101153.16;5050444;28;1582;-36
2022/01/08 07:58:05;;;;;;;;;;;;;;;19.34;67.33;101151.72;5051953;28;1492;-36
2022/01/08 08:00:31;;;;;;;;;;;;;;;19.25;67.21;101144.44;5052288;28;1342;-35
2022/01/08 08:03:02;;;;;;;;;;;;;;;19.21;67.47;101142.97;5049844;28;2062;-35
2022/01/08 08:05:39;;;;;;;;;;;;;;;19.27;67.69;101145.16;5049863;28;1984;-35
2022/01/08 08:08:08;;;;;;;;;;;;;;;19.24;67.76;101145.41;5053671;28;1620;-36
2022/01/08 08:10:37;;;;;;;;;;;;;;;19.18;68.21;101143.22;5047039;28;1605;-36
2022/01/08 08:13:06;;;;;;;;;;;;;;;19.22;68.60;101144.69;5051304;28;1278;-35
2022/01/08 08:15:34;;;;;;;;;;;;;;;19.18;69.24;101140.53;5048003;28;1747;-35
2022/01/08 08:18:01;;;;;;;;;;;;;;;19.20;68.74;101139.47;5050328;28;1586;-35
2022/01/08 08:20:30;;;;;;;;;;;;;;;19.19;68.35;101142.25;5052528;28;1534;-36
2022/01/08 08:23:06;;;;;;;;;;;;;;;19.17;69.01;101149.56;5046577;28;1578;-36
2022/01/08 08:25:33;;;;;;;;;;;;;;;19.19;68.53;101142.25;5050945;28;1919;-35
2022/01/08 08:28:00;;;;;;;;;;;;;;;19.10;69.23;101138.53;5049326;28;1285;-35
2022/01/08 08:30:28;;;;;;;;;;;;;;;19.18;67.77;101137.84;5048201;28;2072;-35
2022/01/08 08:32:57;;;;;;;;;;;;;;;19.10;69.15;101133.16;5045642;28;1380;-35
2022/01/08 08:35:27;;;;;;;;;;;;;;;19.04;68.14;101134.53;5052404;28;1607;-35
2022/01/08 08:37:57;;;;;;;;;;;;;;;19.06;68.53;101135.25;5049123;28;1412;-36
2022/01/08 08:40:26;;;;;;;;;;;;;;;19.07;68.82;101117.31;5053691;28;1507;-36
2022/01/08 08:43:03;;;;;;;;;;;;;;;19.10;67.99;101111.72;5047778;28;1217;-35
2022/01/08 08:45:30;;;;;;;;;;;;;;;18.96;67.82;101102.16;5048028;28;1979;-35
2022/01/08 08:47:57;;;;;;;;;;;;;;;18.99;66.90;101109.91;5043324;28;1763;-35
2022/01/08 08:50:23;;;;;;;;;;;;;;;19.05;67.04;101106.72;5052299;28;1431;-35
2022/01/08 08:52:50;;;;;;;;;;;;;;;19.12;67.00;101099.03;5050740;28;1571;-35
2022/01/08 08:55:25;;;;;;;;;;;;;;;19.11;67.45;101089.28;5045322;28;1313;-35
2022/01/08 08:57:55;;;;;;;;;;;;;;;19.11;67.75;101094.63;5051626;28;1423;-35
2022/01/08 09:00:23;;;;;;;;;;;;;;;19.11;67.50;101100.00;5045460;28;1951;-35
2022/01/08 09:02:53;;;;;;;;;;;;;;;19.10;68.59;101094.75;5049135;28;1867;-35
2022/01/08 09:05:24;;;;;;;;;;;;;;;19.16;67.40;101088.88;5048339;28;1977;-35
2022/01/08 09:10:35;;;;;;;;;;;;;;;19.00;67.75;101068.75;5036523;28;1737;-35
2022/01/08 09:13:04;;;;;;;;;;;;;;;19.13;68.27;101078.44;5050617;28;1618;-35
2022/01/08 09:15:36;;;;;;;;;;;;;;;19.10;67.45;101078.69;5051242;28;1775;-35
2022/01/08 09:18:11;;;;;;;;;;;;;;;19.01;67.23;101070.44;5045714;28;1826;-35
2022/01/08 09:20:37;;;;;;;;;;;;;;;18.94;68.43;101063.91;5053428;28;1601;-36
2022/01/08 09:23:17;;;;;;;;;;;;;;;18.90;67.96;101050.88;5045681;28;1606;-36
2022/01/08 09:25:45;;;;;;;;;;;;;;;18.85;68.87;101053.94;5045999;28;1906;-36
2022/01/08 09:28:12;;;;;;;;;;;;;;;18.85;68.56;101065.50;5051096;28;1511;-36
2022/01/08 09:30:39;;;;;;;;;;;;;;;18.87;68.47;101052.81;5051334;28;1559;-35
2022/01/08 09:33:11;;;;;;;;;;;;;;;18.90;68.92;101051.75;5049386;28;1916;-35
2022/01/08 09:35:41;;;;;;;;;;;;;;;18.85;68.94;101049.41;5049828;28;1701;-35
2022/01/08 09:38:11;;;;;;;;;;;;;;;18.91;68.46;101058.78;5014291;28;10994;-35
2022/01/08 09:40:38;;;;;;;;;;;;;;;18.86;68.01;101039.53;5053129;28;1579;-36
2022/01/08 09:43:14;;;;;;;;;;;;;;;18.80;69.20;101048.97;5034295;28;1887;-36
2022/01/08 09:45:41;;;;;;;;;;;;;;;18.79;68.29;101027.63;5047630;28;1914;-35
2022/01/08 09:48:09;;;;;;;;;;;;;;;18.83;68.29;101042.50;5023528;28;1954;-35
2022/01/08 09:50:35;;;;;;;;;;;;;;;18.84;68.77;101033.47;5053201;28;1872;-35
2022/01/08 09:53:02;;;;;;;;;;;;;;;18.86;67.97;101026.16;5050753;28;1750;-35
2022/01/08 09:55:38;;;;;;;;;;;;;;;18.80;68.15;101019.50;5048475;28;1596;-35
2022/01/08 09:58:21;;;;;;;;;;;;;;;18.95;68.05;101028.06;5046660;28;1529;-36
2022/01/08 10:03:35;;;;;;;;;;;;;;;18.91;67.17;101013.22;5051917;28;2608;-35
2022/01/08 10:06:05;;;;;;;;;;;;;;;18.92;67.64;101006.03;5047229;28;1971;-35
2022/01/08 10:08:33;;;;;;;;;;;;;;;19.00;66.77;101017.81;5048252;28;1998;-35
2022/01/08 10:11:13;;;;;;;;;;;;;;;19.03;67.29;101014.88;5046233;28;1514;-38
2022/01/08 10:13:42;;;;;;;;;;;;;;;19.09;66.64;101008.13;5048522;28;1515;-34
2022/01/08 10:18:58;;;;;;;;;;;;;;;19.18;67.74;101006.50;5052557;28;1200;-34
2022/01/08 10:21:34;;;;;;;;;;;;;;;19.20;67.34;101001.84;5049746;28;1504;-34
2022/01/08 10:24:04;;;;;;;;;;;;;;;19.11;67.85;100997.28;5045053;28;1461;-35
2022/01/08 10:26:41;;;;;;;;;;;;;;;19.20;67.47;101001.84;5051691;28;1975;-34
2022/01/08 10:29:19;;;;;;;;;;;;;;;19.16;68.15;101003.09;5051079;28;1659;-35
2022/01/08 10:31:55;;;;;;;;;;;;;;;19.12;68.00;100985.56;5047375;28;1562;-34
2022/01/08 10:34:24;;;;;;;;;;;;;;;19.10;68.30;100987.53;5050973;28;1423;-35
2022/01/08 10:36:59;;;;;;;;;;;;;;;19.08;68.25;100991.22;5051737;28;1838;-35
2022/01/08 10:39:28;;;;;;;;;;;;;;;19.15;68.00;100988.00;5051542;28;1473;-35
2022/01/08 10:41:56;;;;;;;;;;;;;;;19.11;68.49;100979.38;5052259;28;1319;-36
2022/01/08 10:44:23;;;;;;;;;;;;;;;19.17;68.46;100972.66;5052561;28;1341;-36
2022/01/08 10:46:59;;;;;;;;;;;;;;;19.16;68.61;100976.28;5051376;28;1906;-36
2022/01/08 10:52:11;;;;;;;;;;;;;;;19.15;69.16;100969.25;5049243;28;2622;-38
2022/01/08 10:54:39;;;;;;;;;;;;;;;19.12;68.11;100958.78;5051197;28;1434;-36
2022/01/08 10:57:15;;;;;;;;;;;;;;;19.08;69.00;100964.41;5051352;28;1507;-36
2022/01/08 10:59:59;;;;;;;;;;;;;;;19.05;68.81;100958.47;5050323;28;1397;-36
2022/01/08 11:02:31;;;;;;;;;;;;;;;19.10;69.37;100960.72;5049293;28;1666;-36
2022/01/08 11:05:00;;;;;;;;;;;;;;;19.05;68.49;100945.91;5051861;28;2021;-36
2022/01/08 11:07:33;;;;;;;;;;;;;;;19.02;69.43;100943.50;5051793;28;2023;-36
2022/01/08 11:10:05;;;;;;;;;;;;;;;19.04;68.32;100952.25;5052190;28;2410;-36
2022/01/08 11:12:36;;;;;;;;;;;;;;;19.07;68.01;100946.63;5051454;28;1472;-37
2022/01/08 11:15:24;;;;;;;;;;;;;;;19.01;68.87;100949.81;5050598;28;1359;-37
2022/01/08 11:18:00;;;;;;;;;;;;;;;18.93;68.52;100951.47;5052511;28;1318;-37
2022/01/08 11:20:31;;;;;;;;;;;;;;;18.92;67.14;100947.06;5050342;28;1509;-36
2022/01/08 11:23:05;;;;;;;;;;;;;;;18.90;67.53;100939.19;5050262;28;1613;-37
2022/01/08 11:25:34;;;;;;;;;;;;;;;18.88;67.05;100935.78;5049594;28;1516;-36
2022/01/08 11:28:05;;;;;;;;;;;;;;;18.89;66.98;100940.16;5051997;28;1504;-36
2022/01/08 11:30:33;;;;;;;;;;;;;;;18.91;66.93;100935.53;5052443;28;1577;-37
2022/01/08 11:33:06;;;;;;;;;;;;;;;18.85;67.12;100931.53;5052275;28;1560;-36
2022/01/08 11:35:36;;;;;;;;;;;;;;;18.84;67.28;100934.31;5051836;28;1442;-36
2022/01/08 11:38:06;;;;;;;;;;;;;;;18.86;67.34;100927.00;5051225;28;1753;-36
2022/01/08 11:40:32;;;;;;;;;;;;;;;18.84;66.44;100921.81;5051411;28;1496;-37
2022/01/08 11:43:00;;;;;;;;;;;;;;;18.86;67.00;100906.44;5052696;28;1946;-37
2022/01/08 11:45:31;;;;;;;;;;;;;;;18.85;67.38;100914.59;5052399;28;1716;-36
2022/01/08 11:48:01;;;;;;;;;;;;;;;18.85;67.17;100907.41;5052249;28;1966;-36
2022/01/08 11:50:30;;;;;;;;;;;;;;;18.82;67.27;100904.13;5052012;28;1508;-37
2022/01/08 11:53:11;;;;;;;;;;;;;;;18.88;67.54;100892.94;5051569;28;1521;-37
2022/01/08 11:55:45;;;;;;;;;;;;;;;18.87;66.87;100881.34;5051219;28;1432;-37
2022/01/08 11:58:19;;;;;;;;;;;;;;;18.81;66.76;100886.38;5050557;28;1564;-36
2022/01/08 12:00:58;;;;;;;;;;;;;;;18.80;67.02;100888.22;5049977;28;1655;-37
2022/01/08 12:03:41;;;;;;;;;;;;;;;18.79;67.43;100873.09;5051126;28;1433;-36
2022/01/08 12:06:29;;;;;;;;;;;;;;;18.83;67.89;100873.69;5048051;28;1902;-36
2022/01/08 12:09:07;;;;;;;;;;;;;;;18.80;67.70;100857.88;5047183;28;1637;-39
2022/01/08 12:12:03;;;;;;;;;;;;;;;18.84;67.39;100870.03;5041191;28;1749;-38
2022/01/08 12:14:34;;;;;;;;;;;;;;;18.85;67.21;100861.84;5037805;28;1474;-39
2022/01/08 12:17:15;;;;;;;;;;;;;;;18.85;67.77;100847.63;5046133;28;1632;-39
2022/01/08 12:19:48;;;;;;;;;;;;;;;18.82;67.53;100846.06;5047313;28;1340;-39
2022/01/08 12:22:31;;;;;;;;;;;;;;;18.81;67.75;100856.91;5050890;28;1464;-39
2022/01/08 12:25:00;;;;;;;;;;;;;;;18.91;67.60;100863.16;5045179;28;1480;-38
2022/01/08 12:27:45;;;;;;;;;;;;;;;18.87;66.99;100842.97;5046424;28;1988;-38
2022/01/08 12:30:42;;;;;;;;;;;;;;;18.88;67.41;100840.16;5048782;28;1676;-39
2022/01/08 12:33:18;;;;;;;;;;;;;;;18.98;66.06;100853.63;4982844;28;1486;-39
2022/01/08 12:35:45;;;;;;;;;;;;;;;18.99;66.05;100849.94;5036162;28;1732;-36
2022/01/08 12:38:23;;;;;;;;;;;;;;;18.98;66.16;100834.00;5048879;28;1534;-36
2022/01/08 12:41:06;;;;;;;;;;;;;;;18.92;66.21;100854.16;5050149;28;1488;-36
2022/01/08 12:43:41;;;;;;;;;;;;;;;18.97;67.26;100837.66;5052965;28;1296;-36
2022/01/08 12:46:22;;;;;;;;;;;;;;;19.07;66.03;100844.75;5051564;28;1965;-36
2022/01/08 12:49:08;;;;;;;;;;;;;;;19.01;66.27;100839.09;5052654;28;1522;-36
2022/01/08 12:51:41;;;;;;;;;;;;;;;18.99;67.20;100833.88;5048045;28;1892;-35
2022/01/08 12:54:13;;;;;;;;;;;;;;;19.00;67.41;100830.22;5048794;28;1607;-36
2022/01/08 12:56:48;;;;;;;;;;;;;;;18.97;66.59;100835.84;5053017;28;1493;-36
2022/01/08 12:59:18;;;;;;;;;;;;;;;18.94;66.63;100822.72;5053042;28;1735;-36
2022/01/08 13:01:47;;;;;;;;;;;;;;;19.08;66.68;100824.19;5051230;28;1645;-36
2022/01/08 13:04:17;;;;;;;;;;;;;;;18.88;66.78;100818.75;5045986;28;1154;-36
2022/01/08 13:06:45;;;;;;;;;;;;;;;18.91;67.06;100822.13;5045646;28;1928;-34
2022/01/08 13:09:14;;;;;;;;;;;;;;;19.00;67.43;100824.00;5045897;28;1822;-35
2022/01/08 13:11:56;;;;;;;;;;;;;;;18.94;68.02;100825.41;5049378;28;1932;-34
2022/01/08 13:14:30;;;;;;;;;;;;;;;18.94;67.22;100827.22;5044078;28;1583;-34
2022/01/08 13:16:58;;;;;;;;;;;;;;;18.95;67.18;100828.91;5053414;28;1287;-34
2022/01/08 13:19:25;;;;;;;;;;;;;;;18.91;68.04;100820.28;5053832;28;1566;-35
2022/01/08 13:22:02;;;;;;;;;;;;;;;18.83;67.43;100820.13;5047440;28;1591;-35
2022/01/08 13:24:36;;;;;;;;;;;;;;;18.78;67.81;100807.09;5053319;28;1615;-34
2022/01/08 13:27:06;;;;;;;;;;;;;;;18.77;67.89;100804.53;5047286;28;1897;-35
2022/01/08 13:29:37;;;;;;;;;;;;;;;18.90;67.19;100815.06;5044247;28;1456;-34
2022/01/08 13:32:12;;;;;;;;;;;;;;;18.91;67.63;100817.63;5048500;28;1901;-35
2022/01/08 13:34:40;;;;;;;;;;;;;;;18.91;66.99;100812.25;5051102;28;1724;-35
2022/01/08 13:37:08;;;;;;;;;;;;;;;18.98;67.89;100797.34;5052832;28;2156;-35
2022/01/08 13:39:54;;;;;;;;;;;;;;;18.93;68.07;100788.84;5051181;28;1754;-35
2022/01/08 13:42:25;;;;;;;;;;;;;;;19.00;67.15;100790.03;5046418;28;1629;-35
2022/01/08 13:44:54;;;;;;;;;;;;;;;18.89;67.39;100784.75;5050658;28;1820;-35
2022/01/08 13:47:33;;;;;;;;;;;;;;;18.84;67.71;100784.28;5050825;28;1914;-35